Main page
METAR-TAF:

METAR-TAF

Airports :

Eleusina, Greece

latitude: 38-04N, longitude: 023-33E, elevation: 44 m

Current weather observation

The report was made 31 minutes ago, at 22:50 UTC
Calm wind
Temperature 10°C
Humidity 87%
Pressure 1015 hPa
Visibility 10 km or more
Few clouds at a height of 2500 ft

METAR: LGEL 192250Z 00000KT 9999 FEW025 10/08 Q1015

Time: 01:21 (23:21 UTC)

Forecast

The report was made 6 hours and 21 minutes ago, at 17:00 UTC
Forecast valid from 19 at 18 UTC to 20 at 18 UTC
Wind 5 kt from the Southwest
Visibility 10 km or more
Few clouds at a height of 2500 ft
Becoming
from 20 at 13 UTC to 20 at 15 UTC
Scattered clouds at a height of 2500 ft
Broken clouds at a height of 7000 ft

TAF: LGEL 191700Z 1918/2018 22005KT 9999 FEW025 BECMG 2013/2015 SCT025 BKN070

Weather observations and forecasts of more than 4000 airports (METAR and TAF reports).

The available stations are represented by yellow and red dots on the map.

Hover mouse over dot to see the name of the station.

Then click to see weather observations and forecasts.

To change the map : click on the green buttons with a black cross to zoom in, on the green button with a dash to zoom out, or on the green arrows for adjacent maps.


METAR-TAF: